This is the latest recevied weather packets stored in our database for station/object KJ5HMU-13. If no packets are shown the sender has not sent any weather packets the latest 1 day(s).
| Time | Temp. | Humidity | Pressure | Rain* | Wind** | Luminosity | Snow |
|---|---|---|---|---|---|---|---|
| 1778011331 | 5° C | 85% | 1016.4 hPa | 0 mm | 2.24 m/s, 15° | 897 W/m² | - |
| 1778011026 | 5° C | 84% | 1016.5 hPa | 0 mm | 1.34 m/s, 70° | 800 W/m² | - |
| 1778010724 | 4.44° C | 90% | 1016.4 hPa | 0 mm | 0.89 m/s, 25° | 961 W/m² | - |
| 1778010421 | 3.89° C | 89% | 1016.5 hPa | 0 mm | 0.89 m/s, 25° | 549 W/m² | - |
| 1778010117 | 3.33° C | 92% | 1016.8 hPa | 0 mm | 1.34 m/s, 14° | 491 W/m² | - |
| 1778009813 | 2.78° C | 91% | 1016.8 hPa | 0 mm | 1.79 m/s, 22° | 319 W/m² | - |
| 1778009511 | 2.78° C | 91% | 1016.5 hPa | 1.27 mm | 2.24 m/s, 56° | 200 W/m² | - |
| 1778009209 | 2.78° C | 91% | 1016.9 hPa | 1.27 mm | 0 m/s | 236 W/m² | - |
| 1778008906 | 2.78° C | 89% | 1016.9 hPa | 1.27 mm | 1.34 m/s, 20° | 132 W/m² | - |
| 1778008605 | 3.33° C | 87% | 1017 hPa | 0 mm | 1.34 m/s, 34° | 121 W/m² | - |
| 1778008303 | 3.89° C | 83% | 1017 hPa | 0 mm | 4.47 m/s, 12° | 77 W/m² | - |
| 1778007998 | 5° C | 81% | 1017 hPa | 0 mm | 2.24 m/s, 29° | 60 W/m² | - |
| 1778007698 | 5° C | 82% | 1016.5 hPa | 0 mm | 1.34 m/s, 18° | 154 W/m² | - |
| 1778007395 | 5° C | 81% | 1016.6 hPa | 0 mm | 1.34 m/s, 40° | 133 W/m² | - |
| 1778007091 | 5.56° C | 80% | 1016.6 hPa | 0 mm | 2.24 m/s, 28° | 107 W/m² | - |
| 1778006788 | 6.11° C | 76% | 1016.5 hPa | 0 mm | 3.58 m/s, 17° | 97 W/m² | - |
| 1778006485 | 6.67° C | 71% | 1016.6 hPa | 0 mm | 1.34 m/s, 22° | 117 W/m² | - |
| 1778006182 | 7.78° C | 57% | 1016.6 hPa | 0 mm | 0.45 m/s, 282° | 67 W/m² | - |
| 1778005879 | 8.33° C | 55% | 1016.5 hPa | 0 mm | 0 m/s | 34 W/m² | - |
| 1778005575 | 8.33° C | 62% | 1016.2 hPa | 0 mm | 0 m/s | 97 W/m² | - |
| 1778005273 | 8.33° C | 63% | 1016.4 hPa | 0 mm | 0.89 m/s, 149° | 137 W/m² | - |
| 1778004969 | 7.78° C | 74% | 1016.6 hPa | 0 mm | 0 m/s | 184 W/m² | - |
| 1778004666 | 7.22° C | 76% | 1016.8 hPa | 0 mm | 0 m/s | 191 W/m² | - |
| 1778004362 | 6.67° C | 76% | 1016.9 hPa | 0 mm | 0.45 m/s, 106° | 195 W/m² | - |
| 1778004060 | 6.67° C | 80% | 1016.9 hPa | 0 mm | 0 m/s | 242 W/m² | - |
* Rain latest hour (hover to see other rain measurements)
** Current wind speed in m/s (hover to see current wind gust speed)